createdAt,value
2022-08-21T00:00:28.920Z,5.47
2022-08-21T00:02:59.899Z,4.67
2022-08-21T00:05:27.581Z,4.50
2022-08-21T00:07:55.769Z,4.13
2022-08-21T00:10:23.536Z,4.30
2022-08-21T00:12:50.954Z,5.33
2022-08-21T00:15:23.911Z,4.80
2022-08-21T00:17:53.390Z,6.23
2022-08-21T00:20:21.620Z,4.73
2022-08-21T00:22:49.233Z,5.00
2022-08-21T00:25:17.428Z,5.33
2022-08-21T00:27:47.425Z,5.00
2022-08-21T00:30:22.811Z,4.87
2022-08-21T00:32:51.636Z,5.07
2022-08-21T00:35:22.837Z,5.37
2022-08-21T00:37:50.560Z,6.20
2022-08-21T00:40:24.650Z,5.97
2022-08-21T00:42:53.237Z,5.10
2022-08-21T00:45:23.011Z,5.40
2022-08-21T00:47:51.301Z,7.13
2022-08-21T00:50:21.703Z,6.07
2022-08-21T00:52:52.238Z,5.70
2022-08-21T00:55:22.690Z,6.00
2022-08-21T00:57:57.837Z,5.87
2022-08-21T01:00:30.526Z,6.00
2022-08-21T01:03:00.344Z,5.67
2022-08-21T01:05:28.145Z,6.53
2022-08-21T01:07:56.107Z,6.57
2022-08-21T01:10:24.171Z,6.30
2022-08-21T01:12:57.069Z,5.73
2022-08-21T01:15:28.400Z,6.10
2022-08-21T01:17:55.764Z,6.10
2022-08-21T01:20:23.627Z,6.10
2022-08-21T01:23:02.566Z,5.33
2022-08-21T01:25:30.108Z,5.40
2022-08-21T01:28:00.028Z,6.30
2022-08-21T01:30:28.940Z,4.70
2022-08-21T01:32:57.174Z,5.27
2022-08-21T01:35:24.672Z,5.90
2022-08-21T01:37:52.429Z,5.90
2022-08-21T01:40:20.169Z,6.60
2022-08-21T01:42:47.620Z,6.60
2022-08-21T01:45:16.356Z,6.50
2022-08-21T01:47:44.604Z,7.10
2022-08-21T01:50:15.189Z,6.60
2022-08-21T01:52:42.683Z,7.10
2022-08-21T01:55:12.052Z,7.17
2022-08-21T01:57:39.687Z,6.40
2022-08-21T02:00:10.184Z,6.70
2022-08-21T02:02:37.855Z,5.93
2022-08-21T02:05:05.816Z,6.60
2022-08-21T02:07:42.639Z,7.43
2022-08-21T02:10:12.434Z,6.57
2022-08-21T02:12:39.649Z,6.33
2022-08-21T02:15:07.917Z,6.90
2022-08-21T02:17:39.698Z,7.10
2022-08-21T02:20:08.000Z,7.63
2022-08-21T02:22:35.225Z,6.50
2022-08-21T02:25:02.531Z,7.47
2022-08-21T02:27:29.697Z,6.50
2022-08-21T02:30:01.457Z,7.83
2022-08-21T02:32:28.640Z,7.60
2022-08-21T02:34:55.883Z,6.80
2022-08-21T02:37:24.520Z,7.57
2022-08-21T02:39:52.032Z,7.73
2022-08-21T02:42:19.323Z,7.40
2022-08-21T02:44:46.624Z,7.07
2022-08-21T02:47:15.317Z,7.70
2022-08-21T02:49:42.512Z,7.90
2022-08-21T02:52:09.705Z,8.70
2022-08-21T02:54:36.969Z,7.40
2022-08-21T02:57:04.193Z,6.93
2022-08-21T02:59:34.129Z,6.27
2022-08-21T03:02:01.553Z,6.90
2022-08-21T03:04:28.812Z,7.03
2022-08-21T03:06:56.101Z,8.37
2022-08-21T03:09:23.301Z,8.13
2022-08-21T03:11:51.015Z,8.77
2022-08-21T03:14:18.961Z,9.00
2022-08-21T03:16:46.276Z,7.80
2022-08-21T03:19:13.601Z,7.67
2022-08-21T03:21:40.819Z,7.80
2022-08-21T03:24:08.085Z,7.20
2022-08-21T03:26:35.486Z,8.20
2022-08-21T03:29:03.236Z,8.17
2022-08-21T03:31:30.452Z,8.23
2022-08-21T03:33:58.692Z,5.93
2022-08-21T03:36:26.021Z,7.50
2022-08-21T03:38:53.345Z,8.37
2022-08-21T03:41:20.754Z,7.13
2022-08-21T03:43:48.049Z,7.30
2022-08-21T03:46:15.301Z,7.07
2022-08-21T03:48:42.545Z,7.70
2022-08-21T03:51:09.859Z,7.40
2022-08-21T03:53:37.479Z,7.57
2022-08-21T03:56:05.925Z,8.13
2022-08-21T03:58:33.387Z,8.33
2022-08-21T04:01:01.609Z,9.63
2022-08-21T04:03:29.867Z,7.70
2022-08-21T04:05:57.698Z,7.97
2022-08-21T04:08:25.429Z,8.17
2022-08-21T04:10:54.124Z,8.43
2022-08-21T04:13:22.460Z,9.60
2022-08-21T04:15:50.126Z,9.47
2022-08-21T04:18:18.241Z,8.13
2022-08-21T04:20:50.110Z,7.97
2022-08-21T04:23:24.313Z,8.43
2022-08-21T04:25:52.891Z,8.03
2022-08-21T04:28:20.530Z,8.47
2022-08-21T04:30:48.321Z,7.77
2022-08-21T04:33:15.884Z,8.60
2022-08-21T04:35:43.361Z,7.90
2022-08-21T04:38:11.320Z,7.37
2022-08-21T04:40:38.984Z,7.70
2022-08-21T04:43:10.301Z,8.10
2022-08-21T04:45:39.721Z,8.40
2022-08-21T04:48:13.761Z,8.70
2022-08-21T04:50:46.865Z,8.47
2022-08-21T04:53:19.146Z,7.23
2022-08-21T04:55:47.149Z,7.97
2022-08-21T04:58:16.674Z,7.93
2022-08-21T05:00:45.621Z,7.13
2022-08-21T05:03:13.891Z,7.20
2022-08-21T05:05:41.591Z,7.83
2022-08-21T05:08:13.129Z,8.20
2022-08-21T05:10:40.645Z,9.37
2022-08-21T05:13:08.658Z,7.83
2022-08-21T05:15:36.187Z,9.10
2022-08-21T05:18:03.282Z,7.43
2022-08-21T05:20:30.548Z,7.13
2022-08-21T05:22:58.020Z,5.37
2022-08-21T05:25:30.122Z,4.77
2022-08-21T05:27:58.197Z,6.10
2022-08-21T05:30:28.406Z,5.70
2022-08-21T05:33:04.031Z,4.57
2022-08-21T05:35:32.765Z,4.27
2022-08-21T05:38:02.305Z,4.63
2022-08-21T05:40:31.039Z,4.70
2022-08-21T05:43:02.109Z,4.73
2022-08-21T05:45:43.383Z,4.10
2022-08-21T05:48:12.901Z,4.43
2022-08-21T05:50:40.676Z,3.80
2022-08-21T05:53:08.348Z,4.10
2022-08-21T05:55:40.213Z,3.43
2022-08-21T05:58:10.530Z,4.07
2022-08-21T06:00:38.065Z,3.60
2022-08-21T06:03:05.655Z,3.33
2022-08-21T06:05:37.278Z,3.53
2022-08-21T06:08:05.457Z,3.50
2022-08-21T06:10:32.959Z,3.13
2022-08-21T06:13:00.254Z,3.20
2022-08-21T06:15:28.063Z,3.20
2022-08-21T06:17:55.950Z,2.70
2022-08-21T06:20:23.885Z,2.80
2022-08-21T06:22:51.443Z,2.50
2022-08-21T06:25:19.107Z,2.73
2022-08-21T06:27:46.945Z,2.77
2022-08-21T06:30:14.716Z,2.80
2022-08-21T06:32:42.025Z,2.50
2022-08-21T06:35:09.878Z,3.13
2022-08-21T06:37:36.966Z,2.73
2022-08-21T06:40:05.432Z,2.60
2022-08-21T06:42:32.988Z,2.57
2022-08-21T06:45:00.466Z,2.53
2022-08-21T06:47:28.033Z,2.60
2022-08-21T06:49:55.528Z,3.10
2022-08-21T06:52:23.184Z,2.80
2022-08-21T06:54:50.866Z,2.50
2022-08-21T06:57:18.391Z,3.53
2022-08-21T06:59:45.900Z,3.77
2022-08-21T07:02:13.388Z,3.77
2022-08-21T07:04:40.892Z,3.67
2022-08-21T07:07:08.463Z,2.37
2022-08-21T07:09:35.956Z,2.40
2022-08-21T07:12:03.789Z,2.80
2022-08-21T07:14:31.262Z,1.93
2022-08-21T07:16:58.824Z,2.10
2022-08-21T07:19:26.334Z,2.20
2022-08-21T07:21:55.858Z,1.50
2022-08-21T07:24:23.323Z,1.90
2022-08-21T07:26:50.811Z,1.83
2022-08-21T07:29:18.314Z,1.60
2022-08-21T07:31:45.799Z,1.43
2022-08-21T07:34:13.819Z,1.90
2022-08-21T07:36:41.313Z,1.27
2022-08-21T07:39:08.830Z,1.67
2022-08-21T07:41:36.415Z,1.87
2022-08-21T07:44:04.055Z,1.80
2022-08-21T07:46:34.331Z,1.70
2022-08-21T07:49:01.824Z,1.57
2022-08-21T07:51:29.972Z,1.30
2022-08-21T07:53:58.427Z,1.90
2022-08-21T07:56:26.310Z,1.77
2022-08-21T07:58:53.834Z,1.30
2022-08-21T08:01:21.501Z,1.40
2022-08-21T08:03:49.007Z,1.20
2022-08-21T08:06:16.754Z,1.47
2022-08-21T08:08:44.348Z,2.07
2022-08-21T08:11:12.543Z,1.23
2022-08-21T08:13:41.422Z,1.20
2022-08-21T08:16:08.984Z,1.10
2022-08-21T08:18:36.476Z,1.60
2022-08-21T08:21:04.308Z,1.27
2022-08-21T08:23:31.952Z,1.10
2022-08-21T08:25:59.987Z,0.90
2022-08-21T08:28:27.453Z,1.60
2022-08-21T08:30:54.977Z,1.77
2022-08-21T08:33:22.886Z,1.20
2022-08-21T08:35:51.282Z,1.30
2022-08-21T08:38:21.338Z,1.17
2022-08-21T08:41:10.719Z,1.40
2022-08-21T08:43:38.279Z,1.20
2022-08-21T08:46:07.635Z,1.37
2022-08-21T08:48:42.701Z,1.00
2022-08-21T08:51:14.984Z,1.27
2022-08-21T08:53:47.173Z,1.60
2022-08-21T08:56:14.766Z,0.90
2022-08-21T08:58:43.942Z,0.90
2022-08-21T09:01:17.602Z,1.00
2022-08-21T09:03:45.665Z,1.20
2022-08-21T09:06:32.065Z,1.03
2022-08-21T09:09:05.577Z,1.30
2022-08-21T09:11:33.081Z,1.10
2022-08-21T09:14:00.489Z,1.67
2022-08-21T09:16:42.538Z,2.57
2022-08-21T09:19:28.553Z,2.13
2022-08-21T09:22:07.698Z,1.83
2022-08-21T09:24:51.406Z,1.50
2022-08-21T09:27:20.410Z,1.37
2022-08-21T09:29:49.122Z,1.90
2022-08-21T09:32:21.223Z,1.70
2022-08-21T09:35:01.055Z,0.90
2022-08-21T09:37:30.019Z,0.90
2022-08-21T09:39:58.096Z,1.20
2022-08-21T09:42:27.614Z,1.10
2022-08-21T09:45:11.582Z,1.63
2022-08-21T09:47:39.250Z,0.93
2022-08-21T09:50:17.457Z,1.40
2022-08-21T09:52:56.558Z,1.20
2022-08-21T09:55:35.299Z,0.80
2022-08-21T09:58:05.471Z,0.80
2022-08-21T10:00:34.367Z,1.70
2022-08-21T10:03:12.581Z,1.00
2022-08-21T10:05:41.200Z,1.13
2022-08-21T10:08:17.731Z,1.30
2022-08-21T10:10:45.271Z,1.20
2022-08-21T10:13:23.332Z,0.90
2022-08-21T10:16:15.572Z,1.10
2022-08-21T10:19:11.559Z,0.90
2022-08-21T10:21:57.571Z,1.27
2022-08-21T10:24:38.765Z,0.87
2022-08-21T10:27:11.701Z,1.30
2022-08-21T10:30:01.915Z,0.80
2022-08-21T10:32:47.935Z,1.27
2022-08-21T10:35:21.936Z,1.57
2022-08-21T10:38:55.376Z,1.17
2022-08-21T10:41:38.005Z,1.00
2022-08-21T10:44:17.377Z,1.20
2022-08-21T10:47:02.751Z,0.80
2022-08-21T10:49:38.698Z,0.80
2022-08-21T10:52:37.085Z,0.97
2022-08-21T10:55:31.760Z,0.63
2022-08-21T10:58:05.895Z,1.00
2022-08-21T11:00:50.241Z,0.83
2022-08-21T11:03:39.092Z,1.13
2022-08-21T11:06:18.399Z,1.10
2022-08-21T11:08:50.945Z,1.00
2022-08-21T11:11:25.581Z,0.70
2022-08-21T11:14:10.555Z,1.40
2022-08-21T11:16:38.891Z,1.23
2022-08-21T11:19:12.615Z,0.90
2022-08-21T11:21:49.420Z,1.03
2022-08-21T11:24:23.552Z,1.17
2022-08-21T11:27:11.066Z,0.80
2022-08-21T11:29:41.069Z,1.00
2022-08-21T11:32:52.046Z,0.90
2022-08-21T11:35:50.802Z,0.80
2022-08-21T11:38:31.540Z,1.10
2022-08-21T11:41:01.942Z,0.80
2022-08-21T11:43:49.053Z,1.07
2022-08-21T11:46:29.122Z,1.00
2022-08-21T11:49:05.248Z,0.90
2022-08-21T11:51:47.033Z,1.03
2022-08-21T11:54:29.244Z,0.93
2022-08-21T11:57:08.635Z,1.07
2022-08-21T11:59:48.014Z,0.70
2022-08-21T12:02:20.681Z,1.00
2022-08-21T12:04:56.931Z,1.03
2022-08-21T12:07:39.550Z,0.90
2022-08-21T12:10:14.229Z,0.80
2022-08-21T12:12:45.600Z,1.70
2022-08-21T12:15:15.532Z,1.37
2022-08-21T12:18:03.767Z,0.67
2022-08-21T12:20:31.020Z,0.80
2022-08-21T12:23:13.120Z,0.77
2022-08-21T12:26:00.417Z,0.93
2022-08-21T12:28:29.615Z,0.90
2022-08-21T12:30:58.283Z,0.80
2022-08-21T12:33:38.632Z,1.00
2022-08-21T12:36:13.606Z,0.80
2022-08-21T12:38:50.127Z,1.00
2022-08-21T12:41:25.409Z,1.00
2022-08-21T12:44:10.014Z,0.80
2022-08-21T12:47:04.790Z,0.70
2022-08-21T12:49:45.371Z,0.90
2022-08-21T12:52:20.268Z,0.93
2022-08-21T12:54:47.785Z,1.03
2022-08-21T12:57:24.984Z,1.00
2022-08-21T13:00:02.081Z,1.43
2022-08-21T13:02:37.176Z,0.80
2022-08-21T13:05:07.685Z,0.80
2022-08-21T13:07:37.729Z,0.80
2022-08-21T13:10:24.235Z,0.70
2022-08-21T13:12:55.056Z,0.90
2022-08-21T13:15:47.525Z,1.47
2022-08-21T13:18:27.389Z,0.90
2022-08-21T13:21:14.713Z,0.90
2022-08-21T13:23:42.383Z,0.83
2022-08-21T13:26:21.881Z,0.80
2022-08-21T13:28:50.875Z,1.27
2022-08-21T13:31:23.271Z,1.10
2022-08-21T13:33:51.809Z,1.03
2022-08-21T13:36:33.443Z,1.03
2022-08-21T13:39:00.930Z,0.60
2022-08-21T13:41:30.929Z,0.77
2022-08-21T13:44:20.844Z,0.80
2022-08-21T13:46:50.839Z,0.83
2022-08-21T13:49:22.225Z,1.70
2022-08-21T13:51:49.849Z,1.30
2022-08-21T13:54:27.085Z,0.77
2022-08-21T13:56:55.185Z,0.80
2022-08-21T13:59:36.599Z,1.13
2022-08-21T14:02:21.319Z,1.67
2022-08-21T14:05:02.903Z,1.13
2022-08-21T14:07:38.153Z,0.70
2022-08-21T14:10:16.339Z,1.20
2022-08-21T14:12:49.073Z,2.13
2022-08-21T14:15:18.603Z,1.13
2022-08-21T14:17:47.645Z,1.20
2022-08-21T14:20:32.670Z,0.83
2022-08-21T14:23:00.720Z,1.30
2022-08-21T14:25:46.644Z,1.00
2022-08-21T14:28:31.239Z,1.17
2022-08-21T14:31:00.398Z,1.10
2022-08-21T14:33:33.708Z,0.97
2022-08-21T14:36:01.042Z,0.80
2022-08-21T14:38:28.757Z,1.07
2022-08-21T14:41:00.782Z,1.37
2022-08-21T14:43:28.845Z,1.40
2022-08-21T14:45:56.675Z,1.40
2022-08-21T14:48:24.091Z,0.73
2022-08-21T14:50:58.429Z,1.00
2022-08-21T14:53:27.935Z,1.00
2022-08-21T14:55:55.323Z,0.90
2022-08-21T14:58:22.992Z,0.87
2022-08-21T15:00:51.907Z,1.00
2022-08-21T15:03:20.012Z,0.70
2022-08-21T15:05:47.218Z,1.10
2022-08-21T15:08:14.519Z,0.93
2022-08-21T15:11:08.229Z,1.17
2022-08-21T15:13:30.053Z,0.97
2022-08-21T15:15:57.789Z,1.17
2022-08-21T15:18:29.645Z,0.80
2022-08-21T15:20:56.970Z,1.20
2022-08-21T15:23:24.795Z,1.47
2022-08-21T15:25:55.528Z,1.20
2022-08-21T15:28:23.031Z,0.90
2022-08-21T15:30:51.550Z,0.80
2022-08-21T15:33:19.900Z,1.30
2022-08-21T15:35:47.245Z,0.77
2022-08-21T15:38:15.865Z,1.07
2022-08-21T15:40:52.020Z,1.10
2022-08-21T15:43:48.404Z,1.30
2022-08-21T15:46:18.076Z,1.20
2022-08-21T15:48:45.785Z,1.00
2022-08-21T15:51:14.371Z,1.20
2022-08-21T15:53:41.808Z,1.00
2022-08-21T15:56:22.306Z,1.57
2022-08-21T15:58:53.130Z,0.97
2022-08-21T16:01:22.492Z,1.67
2022-08-21T16:03:53.452Z,1.20
2022-08-21T16:06:37.400Z,1.10
2022-08-21T16:09:06.065Z,1.13
2022-08-21T16:11:36.701Z,1.30
2022-08-21T16:14:04.363Z,1.20
2022-08-21T16:16:34.342Z,1.00
2022-08-21T16:19:04.055Z,1.47
2022-08-21T16:21:31.345Z,2.50
2022-08-21T16:23:58.588Z,1.90
2022-08-21T16:26:26.903Z,1.20
2022-08-21T16:28:57.507Z,1.00
2022-08-21T16:31:26.590Z,1.30
2022-08-21T16:33:57.851Z,1.13
2022-08-21T16:36:26.752Z,1.33
2022-08-21T16:38:58.849Z,1.43
2022-08-21T16:41:33.869Z,1.83
2022-08-21T16:44:02.024Z,2.17
2022-08-21T16:46:35.820Z,3.60
2022-08-21T16:49:03.870Z,1.20
2022-08-21T16:51:31.330Z,1.90
2022-08-21T16:53:59.291Z,1.90
2022-08-21T16:56:27.042Z,1.73
2022-08-21T16:58:55.599Z,1.80
2022-08-21T17:01:24.539Z,2.13
2022-08-21T17:03:52.109Z,1.93
2022-08-21T17:06:20.491Z,1.50
2022-08-21T17:08:52.455Z,1.43
2022-08-21T17:11:32.584Z,1.40
2022-08-21T17:14:07.454Z,1.60
2022-08-21T17:16:35.078Z,1.30
2022-08-21T17:19:02.658Z,1.60
2022-08-21T17:21:30.226Z,1.60
2022-08-21T17:23:57.757Z,1.50
2022-08-21T17:26:25.948Z,1.27
2022-08-21T17:28:54.976Z,1.20
2022-08-21T17:31:22.974Z,1.63
2022-08-21T17:33:52.919Z,1.50
2022-08-21T17:36:28.976Z,1.30
2022-08-21T17:38:57.323Z,1.17
2022-08-21T17:41:25.531Z,1.60
2022-08-21T17:43:53.340Z,1.70
2022-08-21T17:46:27.935Z,1.30
2022-08-21T17:48:56.122Z,2.87
2022-08-21T17:51:24.172Z,1.67
2022-08-21T17:53:51.475Z,1.57
2022-08-21T17:56:19.524Z,1.40
2022-08-21T17:58:51.401Z,1.30
2022-08-21T18:01:20.356Z,1.57
2022-08-21T18:03:48.891Z,1.77
2022-08-21T18:06:17.997Z,1.70
2022-08-21T18:08:46.504Z,1.63
2022-08-21T18:11:23.780Z,2.00
2022-08-21T18:13:52.767Z,1.80
2022-08-21T18:16:20.669Z,2.20
2022-08-21T18:18:49.174Z,2.23
2022-08-21T18:21:16.789Z,1.77
2022-08-21T18:23:45.140Z,2.10
2022-08-21T18:26:20.914Z,2.00
2022-08-21T18:28:48.422Z,1.73
2022-08-21T18:31:15.685Z,1.63
2022-08-21T18:33:57.981Z,1.90
2022-08-21T18:36:27.156Z,1.40
2022-08-21T18:39:04.422Z,1.83
2022-08-21T18:41:41.867Z,1.83
2022-08-21T18:44:10.206Z,1.60
2022-08-21T18:46:37.733Z,2.67
2022-08-21T18:49:05.230Z,2.50
2022-08-21T18:51:32.716Z,2.80
2022-08-21T18:54:00.361Z,2.37
2022-08-21T18:56:28.089Z,2.20
2022-08-21T18:58:55.641Z,2.20
2022-08-21T19:01:23.210Z,1.93
2022-08-21T19:03:52.082Z,1.80
2022-08-21T19:06:19.661Z,2.43
2022-08-21T19:08:47.241Z,2.13
2022-08-21T19:11:25.686Z,1.80
2022-08-21T19:13:54.412Z,2.60
2022-08-21T19:16:22.707Z,2.23
2022-08-21T19:18:50.262Z,2.10
2022-08-21T19:21:17.827Z,2.10
2022-08-21T19:23:45.425Z,1.90
2022-08-21T19:26:12.998Z,2.00
2022-08-21T19:34:28.027Z,2.60
2022-08-21T19:36:55.766Z,2.30
2022-08-21T19:39:24.034Z,2.00
2022-08-21T19:41:58.715Z,1.83
2022-08-21T19:44:27.461Z,2.23
2022-08-21T19:46:57.235Z,1.77
2022-08-21T19:49:26.425Z,2.40
2022-08-21T19:51:54.258Z,2.20
2022-08-21T19:54:26.200Z,2.47
2022-08-21T19:56:55.941Z,2.10
2022-08-21T19:59:25.104Z,2.00
2022-08-21T20:01:53.139Z,1.80
2022-08-21T20:04:21.150Z,2.13
2022-08-21T20:06:48.683Z,2.27
2022-08-21T20:09:16.655Z,1.43
2022-08-21T20:11:44.106Z,1.40
2022-08-21T20:14:13.342Z,1.90
2022-08-21T20:19:28.743Z,2.00
2022-08-21T20:21:58.545Z,1.57
2022-08-21T20:24:27.328Z,1.83
2022-08-21T20:26:55.106Z,2.20
2022-08-21T20:29:24.130Z,1.90
2022-08-21T20:31:56.836Z,2.30
2022-08-21T20:34:24.340Z,1.63
2022-08-21T20:36:53.290Z,2.00
2022-08-21T20:39:23.878Z,1.83
2022-08-21T20:41:52.599Z,1.40
2022-08-21T20:44:20.298Z,1.87
2022-08-21T20:46:47.972Z,1.90
2022-08-21T20:49:20.374Z,1.30
2022-08-21T20:51:52.667Z,1.63
2022-08-21T20:54:20.235Z,1.50
2022-08-21T20:57:05.980Z,1.73
2022-08-21T20:59:44.270Z,1.90
2022-08-21T21:02:30.809Z,1.73
2022-08-21T21:04:58.281Z,1.87
2022-08-21T21:07:30.436Z,1.40
2022-08-21T21:09:59.406Z,1.90
2022-08-21T21:12:30.988Z,1.80
2022-08-21T21:15:01.220Z,2.37
2022-08-21T21:17:41.152Z,1.30
2022-08-21T21:20:14.922Z,1.90
2022-08-21T21:22:51.681Z,2.00
2022-08-21T21:25:24.533Z,1.67
2022-08-21T21:28:04.745Z,1.60
2022-08-21T21:30:36.944Z,1.70
2022-08-21T21:33:04.623Z,2.27
2022-08-21T21:38:26.565Z,1.63
2022-08-21T21:41:03.821Z,1.57
2022-08-21T21:43:31.314Z,1.70
2022-08-21T21:46:04.949Z,1.90
2022-08-21T21:48:51.059Z,2.50
2022-08-21T21:51:29.707Z,1.87
2022-08-21T21:54:11.371Z,2.53
2022-08-21T21:56:47.994Z,1.47
2022-08-21T21:59:41.519Z,1.83
2022-08-21T22:02:18.807Z,1.80
2022-08-21T22:04:51.165Z,1.67
2022-08-21T22:07:33.936Z,1.50
2022-08-21T22:10:05.434Z,1.93
2022-08-21T22:12:33.377Z,1.60
2022-08-21T22:15:09.723Z,1.60
2022-08-21T22:17:51.285Z,2.17
2022-08-21T22:20:40.541Z,2.40
2022-08-21T22:23:11.359Z,2.03
2022-08-21T22:25:45.491Z,1.80
2022-08-21T22:28:16.197Z,2.67
2022-08-21T22:30:49.079Z,1.87
2022-08-21T22:33:20.024Z,2.57
2022-08-21T22:35:51.495Z,2.17
2022-08-21T22:38:21.713Z,2.20
2022-08-21T22:40:49.889Z,1.83
2022-08-21T22:43:22.601Z,1.80
2022-08-21T22:46:05.866Z,1.83
2022-08-21T22:48:36.606Z,1.70
2022-08-21T22:51:25.394Z,2.40
2022-08-21T22:53:57.674Z,2.83
2022-08-21T22:56:49.397Z,2.73
2022-08-21T22:59:39.939Z,2.33
2022-08-21T23:02:22.680Z,3.30
2022-08-21T23:07:42.902Z,2.43
2022-08-21T23:10:20.639Z,2.00
2022-08-21T23:12:49.581Z,1.93
2022-08-21T23:15:18.236Z,2.33
2022-08-21T23:17:50.254Z,2.47
2022-08-21T23:20:17.773Z,2.20
2022-08-21T23:22:45.240Z,2.47
2022-08-21T23:25:24.209Z,2.10
2022-08-21T23:27:52.588Z,2.13
2022-08-21T23:30:23.849Z,2.17
2022-08-21T23:33:27.356Z,2.27
2022-08-21T23:36:08.020Z,1.90
2022-08-21T23:38:42.816Z,2.00
2022-08-21T23:41:16.771Z,1.87
2022-08-21T23:43:57.408Z,2.07
2022-08-21T23:46:49.500Z,2.20
2022-08-21T23:49:24.874Z,2.33
2022-08-21T23:51:55.301Z,1.73
2022-08-21T23:54:43.807Z,2.00
2022-08-21T23:57:21.876Z,2.20
